sensor_id;sensor_type;location;lat;lon;timestamp;P1;durP1;ratioP1;P2;durP2;ratioP2
18411;SDS011;27097;51.738;19.472;2022-11-11T00:01:03;18.08;;;9.48;;
18411;SDS011;27097;51.738;19.472;2022-11-11T00:03:31;20.58;;;9.88;;
18411;SDS011;27097;51.738;19.472;2022-11-11T00:05:59;17.08;;;9.80;;
18411;SDS011;27097;51.738;19.472;2022-11-11T00:08:26;19.75;;;10.82;;
18411;SDS011;27097;51.738;19.472;2022-11-11T00:10:59;18.58;;;9.35;;
18411;SDS011;27097;51.738;19.472;2022-11-11T00:13:28;19.08;;;10.23;;
18411;SDS011;27097;51.738;19.472;2022-11-11T00:15:56;23.15;;;10.50;;
18411;SDS011;27097;51.738;19.472;2022-11-11T00:18:31;19.83;;;10.05;;
18411;SDS011;27097;51.738;19.472;2022-11-11T00:21:15;20.35;;;9.95;;
18411;SDS011;27097;51.738;19.472;2022-11-11T00:24:00;23.25;;;10.52;;
18411;SDS011;27097;51.738;19.472;2022-11-11T00:26:42;21.70;;;10.25;;
18411;SDS011;27097;51.738;19.472;2022-11-11T00:29:10;20.05;;;10.15;;
18411;SDS011;27097;51.738;19.472;2022-11-11T00:31:37;22.02;;;9.20;;
18411;SDS011;27097;51.738;19.472;2022-11-11T00:34:24;21.73;;;9.80;;
18411;SDS011;27097;51.738;19.472;2022-11-11T00:36:51;21.33;;;9.43;;
18411;SDS011;27097;51.738;19.472;2022-11-11T00:39:16;18.30;;;9.70;;
18411;SDS011;27097;51.738;19.472;2022-11-11T00:41:45;19.10;;;9.95;;
18411;SDS011;27097;51.738;19.472;2022-11-11T00:44:12;18.98;;;10.05;;
18411;SDS011;27097;51.738;19.472;2022-11-11T00:46:39;19.17;;;9.32;;
18411;SDS011;27097;51.738;19.472;2022-11-11T00:49:23;19.45;;;9.73;;
18411;SDS011;27097;51.738;19.472;2022-11-11T00:52:07;18.17;;;8.98;;
18411;SDS011;27097;51.738;19.472;2022-11-11T00:54:34;20.88;;;9.27;;
18411;SDS011;27097;51.738;19.472;2022-11-11T00:57:02;17.58;;;9.80;;
18411;SDS011;27097;51.738;19.472;2022-11-11T00:59:29;17.65;;;9.23;;
18411;SDS011;27097;51.738;19.472;2022-11-11T01:01:56;17.52;;;9.02;;
18411;SDS011;27097;51.738;19.472;2022-11-11T01:04:23;19.73;;;9.82;;
18411;SDS011;27097;51.738;19.472;2022-11-11T01:06:50;17.58;;;9.15;;
18411;SDS011;27097;51.738;19.472;2022-11-11T01:09:17;18.75;;;9.45;;
18411;SDS011;27097;51.738;19.472;2022-11-11T01:11:44;17.63;;;9.05;;
18411;SDS011;27097;51.738;19.472;2022-11-11T01:14:12;17.70;;;8.85;;
18411;SDS011;27097;51.738;19.472;2022-11-11T01:16:39;17.02;;;9.20;;
18411;SDS011;27097;51.738;19.472;2022-11-11T01:19:06;16.17;;;8.45;;
18411;SDS011;27097;51.738;19.472;2022-11-11T01:21:33;16.48;;;7.80;;
18411;SDS011;27097;51.738;19.472;2022-11-11T01:24:00;17.02;;;8.48;;
18411;SDS011;27097;51.738;19.472;2022-11-11T01:26:27;18.05;;;9.70;;
18411;SDS011;27097;51.738;19.472;2022-11-11T01:28:54;17.52;;;8.73;;
18411;SDS011;27097;51.738;19.472;2022-11-11T01:31:23;16.20;;;7.93;;
18411;SDS011;27097;51.738;19.472;2022-11-11T01:33:51;15.32;;;8.43;;
18411;SDS011;27097;51.738;19.472;2022-11-11T01:36:19;14.57;;;8.32;;
18411;SDS011;27097;51.738;19.472;2022-11-11T01:38:48;16.65;;;8.35;;
18411;SDS011;27097;51.738;19.472;2022-11-11T01:41:18;16.10;;;8.60;;
18411;SDS011;27097;51.738;19.472;2022-11-11T01:43:59;17.70;;;8.68;;
18411;SDS011;27097;51.738;19.472;2022-11-11T01:46:29;16.48;;;8.85;;
18411;SDS011;27097;51.738;19.472;2022-11-11T01:49:01;15.35;;;8.13;;
18411;SDS011;27097;51.738;19.472;2022-11-11T01:51:45;17.50;;;8.10;;
18411;SDS011;27097;51.738;19.472;2022-11-11T01:54:18;15.48;;;8.77;;
18411;SDS011;27097;51.738;19.472;2022-11-11T01:56:50;13.85;;;7.43;;
18411;SDS011;27097;51.738;19.472;2022-11-11T01:59:22;16.15;;;8.18;;
18411;SDS011;27097;51.738;19.472;2022-11-11T02:01:51;15.73;;;7.93;;
18411;SDS011;27097;51.738;19.472;2022-11-11T02:04:18;23.40;;;7.93;;
18411;SDS011;27097;51.738;19.472;2022-11-11T02:07:00;15.60;;;7.57;;
18411;SDS011;27097;51.738;19.472;2022-11-11T02:09:30;15.60;;;8.13;;
18411;SDS011;27097;51.738;19.472;2022-11-11T02:11:57;15.55;;;8.00;;
18411;SDS011;27097;51.738;19.472;2022-11-11T02:14:44;15.80;;;7.80;;
18411;SDS011;27097;51.738;19.472;2022-11-11T02:17:15;13.82;;;7.75;;
18411;SDS011;27097;51.738;19.472;2022-11-11T02:19:45;14.68;;;7.22;;
18411;SDS011;27097;51.738;19.472;2022-11-11T02:22:16;13.10;;;7.55;;
18411;SDS011;27097;51.738;19.472;2022-11-11T02:24:49;13.25;;;7.53;;
18411;SDS011;27097;51.738;19.472;2022-11-11T02:27:19;13.38;;;7.22;;
18411;SDS011;27097;51.738;19.472;2022-11-11T02:29:49;14.55;;;7.40;;
18411;SDS011;27097;51.738;19.472;2022-11-11T02:32:18;13.15;;;7.63;;
18411;SDS011;27097;51.738;19.472;2022-11-11T02:34:44;14.48;;;7.25;;
18411;SDS011;27097;51.738;19.472;2022-11-11T02:37:12;13.68;;;7.20;;
18411;SDS011;27097;51.738;19.472;2022-11-11T02:39:43;15.25;;;7.03;;
18411;SDS011;27097;51.738;19.472;2022-11-11T02:42:14;13.63;;;6.97;;
18411;SDS011;27097;51.738;19.472;2022-11-11T02:44:43;15.25;;;7.55;;
18411;SDS011;27097;51.738;19.472;2022-11-11T02:47:09;13.60;;;7.25;;
18411;SDS011;27097;51.738;19.472;2022-11-11T02:49:36;12.43;;;7.18;;
18411;SDS011;27097;51.738;19.472;2022-11-11T02:52:03;13.65;;;6.95;;
18411;SDS011;27097;51.738;19.472;2022-11-11T02:54:30;12.65;;;7.13;;
18411;SDS011;27097;51.738;19.472;2022-11-11T02:56:57;12.60;;;7.03;;
18411;SDS011;27097;51.738;19.472;2022-11-11T02:59:35;12.13;;;6.72;;
18411;SDS011;27097;51.738;19.472;2022-11-11T03:02:02;10.65;;;7.18;;
18411;SDS011;27097;51.738;19.472;2022-11-11T03:04:30;12.85;;;7.22;;
18411;SDS011;27097;51.738;19.472;2022-11-11T03:06:56;13.23;;;6.43;;
18411;SDS011;27097;51.738;19.472;2022-11-11T03:09:23;8.75;;;6.05;;
18411;SDS011;27097;51.738;19.472;2022-11-11T03:11:50;11.50;;;6.40;;
18411;SDS011;27097;51.738;19.472;2022-11-11T03:14:17;10.60;;;6.70;;
18411;SDS011;27097;51.738;19.472;2022-11-11T03:16:46;15.60;;;7.05;;
18411;SDS011;27097;51.738;19.472;2022-11-11T03:19:31;12.80;;;6.85;;
18411;SDS011;27097;51.738;19.472;2022-11-11T03:21:58;9.40;;;6.20;;
18411;SDS011;27097;51.738;19.472;2022-11-11T03:24:24;10.77;;;6.10;;
18411;SDS011;27097;51.738;19.472;2022-11-11T03:27:11;16.20;;;7.28;;
18411;SDS011;27097;51.738;19.472;2022-11-11T03:29:37;11.57;;;6.57;;
18411;SDS011;27097;51.738;19.472;2022-11-11T03:32:06;12.85;;;6.68;;
18411;SDS011;27097;51.738;19.472;2022-11-11T03:34:34;11.35;;;6.57;;
18411;SDS011;27097;51.738;19.472;2022-11-11T03:37:01;13.10;;;6.45;;
18411;SDS011;27097;51.738;19.472;2022-11-11T03:39:46;12.93;;;6.70;;
18411;SDS011;27097;51.738;19.472;2022-11-11T03:42:13;17.33;;;6.65;;
18411;SDS011;27097;51.738;19.472;2022-11-11T03:44:39;11.25;;;6.38;;
18411;SDS011;27097;51.738;19.472;2022-11-11T03:47:08;13.63;;;6.90;;
18411;SDS011;27097;51.738;19.472;2022-11-11T03:49:35;12.85;;;7.30;;
18411;SDS011;27097;51.738;19.472;2022-11-11T03:52:02;11.45;;;6.43;;
18411;SDS011;27097;51.738;19.472;2022-11-11T03:54:29;11.85;;;6.32;;
18411;SDS011;27097;51.738;19.472;2022-11-11T03:56:56;11.25;;;6.68;;
18411;SDS011;27097;51.738;19.472;2022-11-11T03:59:43;10.38;;;6.40;;
18411;SDS011;27097;51.738;19.472;2022-11-11T04:02:12;11.55;;;6.63;;
18411;SDS011;27097;51.738;19.472;2022-11-11T04:04:57;9.80;;;6.03;;
18411;SDS011;27097;51.738;19.472;2022-11-11T04:07:41;11.18;;;5.97;;
18411;SDS011;27097;51.738;19.472;2022-11-11T04:10:27;11.25;;;5.85;;
18411;SDS011;27097;51.738;19.472;2022-11-11T04:12:56;10.10;;;5.95;;
18411;SDS011;27097;51.738;19.472;2022-11-11T04:15:42;10.75;;;5.90;;
18411;SDS011;27097;51.738;19.472;2022-11-11T04:18:33;9.82;;;5.72;;
18411;SDS011;27097;51.738;19.472;2022-11-11T04:21:17;11.40;;;6.43;;
18411;SDS011;27097;51.738;19.472;2022-11-11T04:24:02;9.70;;;6.10;;
18411;SDS011;27097;51.738;19.472;2022-11-11T04:26:49;10.68;;;5.95;;
18411;SDS011;27097;51.738;19.472;2022-11-11T04:29:17;10.02;;;6.07;;
18411;SDS011;27097;51.738;19.472;2022-11-11T04:31:53;9.25;;;5.93;;
18411;SDS011;27097;51.738;19.472;2022-11-11T04:34:40;10.10;;;6.22;;
18411;SDS011;27097;51.738;19.472;2022-11-11T04:37:08;10.20;;;6.20;;
18411;SDS011;27097;51.738;19.472;2022-11-11T04:39:35;10.05;;;6.05;;
18411;SDS011;27097;51.738;19.472;2022-11-11T04:42:20;11.40;;;5.45;;
18411;SDS011;27097;51.738;19.472;2022-11-11T04:44:47;9.55;;;5.43;;
18411;SDS011;27097;51.738;19.472;2022-11-11T04:47:37;11.05;;;5.70;;
18411;SDS011;27097;51.738;19.472;2022-11-11T04:50:06;10.25;;;5.88;;
18411;SDS011;27097;51.738;19.472;2022-11-11T04:52:33;9.48;;;5.78;;
18411;SDS011;27097;51.738;19.472;2022-11-11T04:55:00;9.90;;;5.65;;
18411;SDS011;27097;51.738;19.472;2022-11-11T04:57:59;10.23;;;5.95;;
18411;SDS011;27097;51.738;19.472;2022-11-11T05:00:26;11.40;;;5.95;;
18411;SDS011;27097;51.738;19.472;2022-11-11T05:02:54;11.00;;;5.70;;
18411;SDS011;27097;51.738;19.472;2022-11-11T05:05:45;9.15;;;5.43;;
18411;SDS011;27097;51.738;19.472;2022-11-11T05:08:31;10.90;;;5.88;;
18411;SDS011;27097;51.738;19.472;2022-11-11T05:11:17;10.05;;;5.35;;
18411;SDS011;27097;51.738;19.472;2022-11-11T05:13:44;9.90;;;5.50;;
18411;SDS011;27097;51.738;19.472;2022-11-11T05:16:26;10.05;;;5.90;;
18411;SDS011;27097;51.738;19.472;2022-11-11T05:19:13;8.85;;;5.38;;
18411;SDS011;27097;51.738;19.472;2022-11-11T05:22:01;10.02;;;5.40;;
18411;SDS011;27097;51.738;19.472;2022-11-11T05:24:33;12.57;;;5.50;;
18411;SDS011;27097;51.738;19.472;2022-11-11T05:27:17;9.98;;;5.60;;
18411;SDS011;27097;51.738;19.472;2022-11-11T05:29:45;12.48;;;5.63;;
18411;SDS011;27097;51.738;19.472;2022-11-11T05:32:14;10.68;;;5.57;;
18411;SDS011;27097;51.738;19.472;2022-11-11T05:34:42;10.10;;;5.28;;
18411;SDS011;27097;51.738;19.472;2022-11-11T05:37:11;9.13;;;5.55;;
18411;SDS011;27097;51.738;19.472;2022-11-11T05:39:38;9.75;;;5.65;;
18411;SDS011;27097;51.738;19.472;2022-11-11T05:42:05;9.25;;;5.60;;
18411;SDS011;27097;51.738;19.472;2022-11-11T05:44:32;8.63;;;5.70;;
18411;SDS011;27097;51.738;19.472;2022-11-11T05:46:59;9.13;;;5.57;;
18411;SDS011;27097;51.738;19.472;2022-11-11T05:49:26;9.30;;;5.70;;
18411;SDS011;27097;51.738;19.472;2022-11-11T05:51:53;8.75;;;5.85;;
18411;SDS011;27097;51.738;19.472;2022-11-11T05:54:22;9.00;;;5.35;;
18411;SDS011;27097;51.738;19.472;2022-11-11T05:56:49;9.13;;;5.20;;
18411;SDS011;27097;51.738;19.472;2022-11-11T05:59:16;10.25;;;5.78;;
18411;SDS011;27097;51.738;19.472;2022-11-11T06:01:44;11.27;;;5.32;;
18411;SDS011;27097;51.738;19.472;2022-11-11T06:04:11;10.45;;;5.55;;
18411;SDS011;27097;51.738;19.472;2022-11-11T06:06:38;10.38;;;5.30;;
18411;SDS011;27097;51.738;19.472;2022-11-11T06:09:05;11.50;;;5.15;;
18411;SDS011;27097;51.738;19.472;2022-11-11T06:11:33;9.32;;;5.20;;
18411;SDS011;27097;51.738;19.472;2022-11-11T06:14:00;10.65;;;5.55;;
18411;SDS011;27097;51.738;19.472;2022-11-11T06:16:27;7.32;;;5.20;;
18411;SDS011;27097;51.738;19.472;2022-11-11T06:18:54;8.63;;;5.40;;
18411;SDS011;27097;51.738;19.472;2022-11-11T06:21:21;10.07;;;5.45;;
18411;SDS011;27097;51.738;19.472;2022-11-11T06:23:48;12.15;;;5.10;;
18411;SDS011;27097;51.738;19.472;2022-11-11T06:26:15;10.40;;;5.28;;
18411;SDS011;27097;51.738;19.472;2022-11-11T06:28:43;10.43;;;5.55;;
18411;SDS011;27097;51.738;19.472;2022-11-11T06:31:12;7.53;;;5.10;;
18411;SDS011;27097;51.738;19.472;2022-11-11T06:33:40;8.68;;;5.20;;
18411;SDS011;27097;51.738;19.472;2022-11-11T06:36:08;8.32;;;4.90;;
18411;SDS011;27097;51.738;19.472;2022-11-11T06:38:36;10.55;;;5.03;;
18411;SDS011;27097;51.738;19.472;2022-11-11T06:41:03;9.27;;;5.35;;
18411;SDS011;27097;51.738;19.472;2022-11-11T06:43:30;9.32;;;4.75;;
18411;SDS011;27097;51.738;19.472;2022-11-11T06:45:58;12.27;;;5.07;;
18411;SDS011;27097;51.738;19.472;2022-11-11T06:48:26;10.38;;;5.07;;
18411;SDS011;27097;51.738;19.472;2022-11-11T06:50:54;11.07;;;4.88;;
18411;SDS011;27097;51.738;19.472;2022-11-11T06:53:26;10.88;;;5.10;;
18411;SDS011;27097;51.738;19.472;2022-11-11T06:55:54;8.05;;;4.93;;
18411;SDS011;27097;51.738;19.472;2022-11-11T06:58:21;17.02;;;5.30;;
18411;SDS011;27097;51.738;19.472;2022-11-11T07:00:49;8.98;;;4.70;;
18411;SDS011;27097;51.738;19.472;2022-11-11T07:03:18;13.10;;;4.90;;
18411;SDS011;27097;51.738;19.472;2022-11-11T07:05:46;9.18;;;5.57;;
18411;SDS011;27097;51.738;19.472;2022-11-11T07:08:15;12.07;;;5.40;;
18411;SDS011;27097;51.738;19.472;2022-11-11T07:10:44;12.77;;;5.40;;
18411;SDS011;27097;51.738;19.472;2022-11-11T07:13:12;11.13;;;5.80;;
18411;SDS011;27097;51.738;19.472;2022-11-11T07:15:40;11.23;;;5.70;;
18411;SDS011;27097;51.738;19.472;2022-11-11T07:18:08;12.73;;;6.15;;
18411;SDS011;27097;51.738;19.472;2022-11-11T07:20:37;11.75;;;5.88;;
18411;SDS011;27097;51.738;19.472;2022-11-11T07:23:05;11.40;;;5.05;;
18411;SDS011;27097;51.738;19.472;2022-11-11T07:25:32;16.65;;;5.93;;
18411;SDS011;27097;51.738;19.472;2022-11-11T07:27:59;11.23;;;5.75;;
18411;SDS011;27097;51.738;19.472;2022-11-11T07:30:26;19.92;;;6.05;;
18411;SDS011;27097;51.738;19.472;2022-11-11T07:32:53;14.73;;;6.15;;
18411;SDS011;27097;51.738;19.472;2022-11-11T07:35:21;13.13;;;6.03;;
18411;SDS011;27097;51.738;19.472;2022-11-11T07:37:49;10.57;;;5.53;;
18411;SDS011;27097;51.738;19.472;2022-11-11T07:40:20;22.58;;;6.30;;
18411;SDS011;27097;51.738;19.472;2022-11-11T07:42:47;19.88;;;6.40;;
18411;SDS011;27097;51.738;19.472;2022-11-11T07:45:14;17.10;;;6.05;;
18411;SDS011;27097;51.738;19.472;2022-11-11T07:47:41;20.27;;;6.68;;
18411;SDS011;27097;51.738;19.472;2022-11-11T07:50:10;13.50;;;5.72;;
18411;SDS011;27097;51.738;19.472;2022-11-11T07:52:37;50.08;;;10.77;;
18411;SDS011;27097;51.738;19.472;2022-11-11T07:55:06;27.05;;;7.88;;
18411;SDS011;27097;51.738;19.472;2022-11-11T07:57:34;21.65;;;7.50;;
18411;SDS011;27097;51.738;19.472;2022-11-11T08:00:01;24.52;;;7.60;;
18411;SDS011;27097;51.738;19.472;2022-11-11T08:02:29;27.45;;;8.80;;
18411;SDS011;27097;51.738;19.472;2022-11-11T08:04:56;37.45;;;9.20;;
18411;SDS011;27097;51.738;19.472;2022-11-11T08:07:23;21.80;;;7.32;;
18411;SDS011;27097;51.738;19.472;2022-11-11T08:09:50;25.88;;;7.90;;
18411;SDS011;27097;51.738;19.472;2022-11-11T08:12:18;24.67;;;7.25;;
18411;SDS011;27097;51.738;19.472;2022-11-11T08:15:03;20.83;;;7.53;;
18411;SDS011;27097;51.738;19.472;2022-11-11T08:17:30;18.80;;;6.57;;
18411;SDS011;27097;51.738;19.472;2022-11-11T08:20:02;17.83;;;6.65;;
18411;SDS011;27097;51.738;19.472;2022-11-11T08:22:34;21.25;;;6.30;;
18411;SDS011;27097;51.738;19.472;2022-11-11T08:25:01;15.68;;;6.88;;
18411;SDS011;27097;51.738;19.472;2022-11-11T08:27:30;17.65;;;6.82;;
18411;SDS011;27097;51.738;19.472;2022-11-11T08:29:57;22.42;;;6.75;;
18411;SDS011;27097;51.738;19.472;2022-11-11T08:32:24;15.65;;;6.85;;
18411;SDS011;27097;51.738;19.472;2022-11-11T08:34:51;15.35;;;6.80;;
18411;SDS011;27097;51.738;19.472;2022-11-11T08:37:18;14.63;;;6.10;;
18411;SDS011;27097;51.738;19.472;2022-11-11T08:39:44;16.02;;;6.55;;
18411;SDS011;27097;51.738;19.472;2022-11-11T08:42:11;19.98;;;6.70;;
18411;SDS011;27097;51.738;19.472;2022-11-11T08:44:40;17.20;;;6.97;;
18411;SDS011;27097;51.738;19.472;2022-11-11T08:47:07;19.83;;;6.68;;
18411;SDS011;27097;51.738;19.472;2022-11-11T08:49:33;14.40;;;6.03;;
18411;SDS011;27097;51.738;19.472;2022-11-11T08:52:01;20.10;;;6.90;;
18411;SDS011;27097;51.738;19.472;2022-11-11T08:54:28;17.00;;;6.88;;
18411;SDS011;27097;51.738;19.472;2022-11-11T08:56:55;13.77;;;6.88;;
18411;SDS011;27097;51.738;19.472;2022-11-11T08:59:22;14.65;;;6.50;;
18411;SDS011;27097;51.738;19.472;2022-11-11T09:01:50;27.42;;;6.60;;
18411;SDS011;27097;51.738;19.472;2022-11-11T09:04:17;26.25;;;7.80;;
18411;SDS011;27097;51.738;19.472;2022-11-11T09:06:44;18.50;;;6.35;;
18411;SDS011;27097;51.738;19.472;2022-11-11T09:09:12;15.13;;;6.72;;
18411;SDS011;27097;51.738;19.472;2022-11-11T09:11:39;14.98;;;6.65;;
18411;SDS011;27097;51.738;19.472;2022-11-11T09:14:06;14.23;;;6.47;;
18411;SDS011;27097;51.738;19.472;2022-11-11T09:16:34;17.25;;;7.10;;
18411;SDS011;27097;51.738;19.472;2022-11-11T09:19:02;17.73;;;6.75;;
18411;SDS011;27097;51.738;19.472;2022-11-11T09:21:29;14.25;;;6.85;;
18411;SDS011;27097;51.738;19.472;2022-11-11T09:23:56;13.60;;;6.22;;
18411;SDS011;27097;51.738;19.472;2022-11-11T09:26:24;12.18;;;6.30;;
18411;SDS011;27097;51.738;19.472;2022-11-11T09:28:54;16.30;;;6.50;;
18411;SDS011;27097;51.738;19.472;2022-11-11T09:31:25;17.73;;;6.70;;
18411;SDS011;27097;51.738;19.472;2022-11-11T09:33:52;13.98;;;6.97;;
18411;SDS011;27097;51.738;19.472;2022-11-11T09:36:23;17.33;;;6.25;;
18411;SDS011;27097;51.738;19.472;2022-11-11T09:38:50;17.80;;;6.85;;
18411;SDS011;27097;51.738;19.472;2022-11-11T09:41:17;12.70;;;6.47;;
18411;SDS011;27097;51.738;19.472;2022-11-11T09:43:50;14.95;;;6.80;;
18411;SDS011;27097;51.738;19.472;2022-11-11T09:52:07;14.70;;;7.28;;
18411;SDS011;27097;51.738;19.472;2022-11-11T09:54:43;15.43;;;7.13;;
18411;SDS011;27097;51.738;19.472;2022-11-11T09:57:14;10.95;;;6.32;;
18411;SDS011;27097;51.738;19.472;2022-11-11T09:59:50;17.20;;;6.90;;
18411;SDS011;27097;51.738;19.472;2022-11-11T10:02:23;17.98;;;6.95;;
18411;SDS011;27097;51.738;19.472;2022-11-11T10:04:56;21.42;;;6.68;;
18411;SDS011;27097;51.738;19.472;2022-11-11T10:07:33;12.35;;;6.35;;
18411;SDS011;27097;51.738;19.472;2022-11-11T10:10:07;14.38;;;6.93;;
18411;SDS011;27097;51.738;19.472;2022-11-11T10:12:41;12.57;;;6.20;;
18411;SDS011;27097;51.738;19.472;2022-11-11T10:15:15;13.77;;;6.93;;
18411;SDS011;27097;51.738;19.472;2022-11-11T10:17:51;14.98;;;6.50;;
18411;SDS011;27097;51.738;19.472;2022-11-11T10:20:33;14.07;;;5.90;;
18411;SDS011;27097;51.738;19.472;2022-11-11T10:23:09;17.85;;;6.22;;
18411;SDS011;27097;51.738;19.472;2022-11-11T10:25:41;14.65;;;6.50;;
18411;SDS011;27097;51.738;19.472;2022-11-11T10:28:18;15.77;;;6.40;;
18411;SDS011;27097;51.738;19.472;2022-11-11T10:30:46;14.25;;;6.05;;
18411;SDS011;27097;51.738;19.472;2022-11-11T10:33:16;14.43;;;6.20;;
18411;SDS011;27097;51.738;19.472;2022-11-11T10:35:47;18.10;;;5.95;;
18411;SDS011;27097;51.738;19.472;2022-11-11T10:38:29;13.50;;;6.03;;
18411;SDS011;27097;51.738;19.472;2022-11-11T10:41:03;13.00;;;5.78;;
18411;SDS011;27097;51.738;19.472;2022-11-11T10:43:36;21.40;;;6.38;;
18411;SDS011;27097;51.738;19.472;2022-11-11T10:46:04;25.25;;;6.18;;
18411;SDS011;27097;51.738;19.472;2022-11-11T10:48:39;15.13;;;6.20;;
18411;SDS011;27097;51.738;19.472;2022-11-11T10:51:12;16.77;;;5.82;;
18411;SDS011;27097;51.738;19.472;2022-11-11T10:53:42;12.50;;;5.88;;
18411;SDS011;27097;51.738;19.472;2022-11-11T10:56:17;11.15;;;5.85;;
18411;SDS011;27097;51.738;19.472;2022-11-11T10:58:51;20.85;;;7.05;;
18411;SDS011;27097;51.738;19.472;2022-11-11T11:01:25;19.83;;;6.50;;
18411;SDS011;27097;51.738;19.472;2022-11-11T11:03:57;11.82;;;6.47;;
18411;SDS011;27097;51.738;19.472;2022-11-11T11:06:29;18.63;;;6.45;;
18411;SDS011;27097;51.738;19.472;2022-11-11T11:09:00;18.67;;;6.90;;
18411;SDS011;27097;51.738;19.472;2022-11-11T11:11:37;22.85;;;6.53;;
18411;SDS011;27097;51.738;19.472;2022-11-11T11:14:09;17.92;;;6.53;;
18411;SDS011;27097;51.738;19.472;2022-11-11T11:16:43;20.60;;;6.35;;
18411;SDS011;27097;51.738;19.472;2022-11-11T11:19:16;12.50;;;5.93;;
18411;SDS011;27097;51.738;19.472;2022-11-11T11:21:47;14.30;;;5.65;;
18411;SDS011;27097;51.738;19.472;2022-11-11T11:24:21;11.20;;;5.68;;
18411;SDS011;27097;51.738;19.472;2022-11-11T11:26:50;11.18;;;5.60;;
18411;SDS011;27097;51.738;19.472;2022-11-11T11:29:26;13.10;;;6.05;;
18411;SDS011;27097;51.738;19.472;2022-11-11T11:31:55;15.05;;;6.32;;
18411;SDS011;27097;51.738;19.472;2022-11-11T11:34:43;16.45;;;6.07;;
18411;SDS011;27097;51.738;19.472;2022-11-11T11:37:12;17.23;;;6.43;;
18411;SDS011;27097;51.738;19.472;2022-11-11T11:39:40;12.18;;;5.43;;
18411;SDS011;27097;51.738;19.472;2022-11-11T11:42:08;19.38;;;5.70;;
18411;SDS011;27097;51.738;19.472;2022-11-11T11:44:52;16.13;;;6.22;;
18411;SDS011;27097;51.738;19.472;2022-11-11T11:47:22;13.43;;;5.43;;
18411;SDS011;27097;51.738;19.472;2022-11-11T11:50:13;13.13;;;5.57;;
18411;SDS011;27097;51.738;19.472;2022-11-11T11:52:53;17.88;;;5.60;;
18411;SDS011;27097;51.738;19.472;2022-11-11T11:55:31;15.07;;;5.40;;
18411;SDS011;27097;51.738;19.472;2022-11-11T11:58:08;21.50;;;5.93;;
18411;SDS011;27097;51.738;19.472;2022-11-11T12:00:49;14.60;;;5.55;;
18411;SDS011;27097;51.738;19.472;2022-11-11T12:03:45;16.02;;;5.45;;
18411;SDS011;27097;51.738;19.472;2022-11-11T12:06:35;12.60;;;5.40;;
18411;SDS011;27097;51.738;19.472;2022-11-11T12:09:10;13.82;;;5.60;;
18411;SDS011;27097;51.738;19.472;2022-11-11T12:11:49;14.75;;;6.00;;
18411;SDS011;27097;51.738;19.472;2022-11-11T12:14:32;13.05;;;5.88;;
18411;SDS011;27097;51.738;19.472;2022-11-11T12:17:09;20.58;;;5.80;;
18411;SDS011;27097;51.738;19.472;2022-11-11T12:19:50;13.20;;;5.70;;
18411;SDS011;27097;51.738;19.472;2022-11-11T12:22:35;13.45;;;5.85;;
18411;SDS011;27097;51.738;19.472;2022-11-11T12:25:16;12.35;;;5.63;;
18411;SDS011;27097;51.738;19.472;2022-11-11T12:27:55;10.18;;;5.57;;
18411;SDS011;27097;51.738;19.472;2022-11-11T12:30:27;13.10;;;6.53;;
18411;SDS011;27097;51.738;19.472;2022-11-11T12:33:00;12.43;;;6.57;;
18411;SDS011;27097;51.738;19.472;2022-11-11T12:35:42;17.42;;;6.32;;
18411;SDS011;27097;51.738;19.472;2022-11-11T12:38:33;13.00;;;6.78;;
18411;SDS011;27097;51.738;19.472;2022-11-11T12:41:21;15.88;;;6.40;;
18411;SDS011;27097;51.738;19.472;2022-11-11T12:44:05;15.60;;;5.90;;
18411;SDS011;27097;51.738;19.472;2022-11-11T12:46:38;16.60;;;6.10;;
18411;SDS011;27097;51.738;19.472;2022-11-11T12:49:15;16.58;;;6.28;;
18411;SDS011;27097;51.738;19.472;2022-11-11T12:52:00;14.23;;;5.72;;
18411;SDS011;27097;51.738;19.472;2022-11-11T12:54:33;13.57;;;6.35;;
18411;SDS011;27097;51.738;19.472;2022-11-11T12:57:09;18.80;;;6.10;;
18411;SDS011;27097;51.738;19.472;2022-11-11T12:59:55;16.58;;;5.85;;
18411;SDS011;27097;51.738;19.472;2022-11-11T13:02:50;12.57;;;6.20;;
18411;SDS011;27097;51.738;19.472;2022-11-11T13:05:30;17.23;;;6.43;;
18411;SDS011;27097;51.738;19.472;2022-11-11T13:08:18;13.65;;;6.43;;
18411;SDS011;27097;51.738;19.472;2022-11-11T13:11:25;12.82;;;6.32;;
18411;SDS011;27097;51.738;19.472;2022-11-11T13:14:11;13.50;;;6.40;;
18411;SDS011;27097;51.738;19.472;2022-11-11T13:16:57;18.63;;;7.35;;
18411;SDS011;27097;51.738;19.472;2022-11-11T13:19:29;15.50;;;6.63;;
18411;SDS011;27097;51.738;19.472;2022-11-11T13:22:05;14.77;;;6.13;;
18411;SDS011;27097;51.738;19.472;2022-11-11T13:24:39;18.60;;;6.00;;
18411;SDS011;27097;51.738;19.472;2022-11-11T13:27:06;17.70;;;7.43;;
18411;SDS011;27097;51.738;19.472;2022-11-11T13:30:09;18.50;;;7.45;;
18411;SDS011;27097;51.738;19.472;2022-11-11T13:33:06;18.45;;;6.70;;
18411;SDS011;27097;51.738;19.472;2022-11-11T13:35:37;13.90;;;6.20;;
18411;SDS011;27097;51.738;19.472;2022-11-11T13:38:10;16.27;;;6.32;;
18411;SDS011;27097;51.738;19.472;2022-11-11T13:40:48;16.33;;;7.05;;
18411;SDS011;27097;51.738;19.472;2022-11-11T13:43:21;15.40;;;6.60;;
18411;SDS011;27097;51.738;19.472;2022-11-11T13:45:52;14.75;;;6.57;;
18411;SDS011;27097;51.738;19.472;2022-11-11T13:48:25;17.05;;;6.57;;
18411;SDS011;27097;51.738;19.472;2022-11-11T13:51:08;24.00;;;6.63;;
18411;SDS011;27097;51.738;19.472;2022-11-11T13:53:38;23.42;;;5.72;;
18411;SDS011;27097;51.738;19.472;2022-11-11T13:56:07;17.67;;;5.80;;
18411;SDS011;27097;51.738;19.472;2022-11-11T13:58:38;12.73;;;5.53;;
18411;SDS011;27097;51.738;19.472;2022-11-11T14:01:11;19.27;;;6.20;;
18411;SDS011;27097;51.738;19.472;2022-11-11T14:03:58;17.20;;;5.68;;
18411;SDS011;27097;51.738;19.472;2022-11-11T14:06:36;19.90;;;6.32;;
18411;SDS011;27097;51.738;19.472;2022-11-11T14:12:32;11.77;;;5.38;;
18411;SDS011;27097;51.738;19.472;2022-11-11T14:15:03;10.88;;;5.43;;
18411;SDS011;27097;51.738;19.472;2022-11-11T14:17:33;12.10;;;5.60;;
18411;SDS011;27097;51.738;19.472;2022-11-11T14:23:20;12.32;;;5.63;;
18411;SDS011;27097;51.738;19.472;2022-11-11T14:25:50;16.40;;;5.93;;
18411;SDS011;27097;51.738;19.472;2022-11-11T14:28:40;16.23;;;5.47;;
18411;SDS011;27097;51.738;19.472;2022-11-11T14:31:26;14.73;;;5.93;;
18411;SDS011;27097;51.738;19.472;2022-11-11T14:34:36;10.75;;;5.30;;
18411;SDS011;27097;51.738;19.472;2022-11-11T14:37:28;13.48;;;6.10;;
18411;SDS011;27097;51.738;19.472;2022-11-11T14:40:08;12.48;;;5.20;;
18411;SDS011;27097;51.738;19.472;2022-11-11T14:42:45;10.82;;;4.93;;
18411;SDS011;27097;51.738;19.472;2022-11-11T14:54:34;9.88;;;5.45;;
18411;SDS011;27097;51.738;19.472;2022-11-11T14:57:10;12.32;;;5.30;;
18411;SDS011;27097;51.738;19.472;2022-11-11T14:59:46;11.25;;;5.45;;
18411;SDS011;27097;51.738;19.472;2022-11-11T15:02:20;12.43;;;5.47;;
18411;SDS011;27097;51.738;19.472;2022-11-11T15:04:51;10.02;;;5.20;;
18411;SDS011;27097;51.738;19.472;2022-11-11T15:07:25;11.70;;;5.70;;
18411;SDS011;27097;51.738;19.472;2022-11-11T15:13:28;10.77;;;5.53;;
18411;SDS011;27097;51.738;19.472;2022-11-11T15:16:21;12.30;;;5.32;;
18411;SDS011;27097;51.738;19.472;2022-11-11T15:19:08;9.70;;;5.30;;
18411;SDS011;27097;51.738;19.472;2022-11-11T15:21:51;11.50;;;5.40;;